sensor_id;sensor_type;location;lat;lon;timestamp;pressure;altitude;pressure_sealevel;temperature;humidity
50105;BME280;47690;39.202;-77.198;2023-05-02T00:00:24;98167.19;;;42.81;8.14
50105;BME280;47690;39.202;-77.198;2023-05-02T00:02:53;98182.81;;;42.59;8.32
50105;BME280;47690;39.202;-77.198;2023-05-02T00:05:23;98166.66;;;42.54;8.66
50105;BME280;47690;39.202;-77.198;2023-05-02T00:11:26;98162.09;;;42.74;8.42
50105;BME280;47690;39.202;-77.198;2023-05-02T00:13:59;98159.22;;;42.65;8.81
50105;BME280;47690;39.202;-77.198;2023-05-02T00:16:30;98153.41;;;42.53;8.69
50105;BME280;47690;39.202;-77.198;2023-05-02T00:19:01;98167.31;;;42.36;8.96
50105;BME280;47690;39.202;-77.198;2023-05-02T00:21:31;98164.00;;;42.14;8.89
50105;BME280;47690;39.202;-77.198;2023-05-02T00:24:04;98151.34;;;42.39;9.02
50105;BME280;47690;39.202;-77.198;2023-05-02T00:26:35;98150.41;;;42.54;8.86
50105;BME280;47690;39.202;-77.198;2023-05-02T00:29:07;98145.09;;;42.09;9.05
50105;BME280;47690;39.202;-77.198;2023-05-02T00:31:37;98145.50;;;41.92;9.28
50105;BME280;47690;39.202;-77.198;2023-05-02T00:34:09;98149.38;;;41.81;9.35
50105;BME280;47690;39.202;-77.198;2023-05-02T00:36:38;98154.19;;;41.89;8.99
50105;BME280;47690;39.202;-77.198;2023-05-02T00:39:13;98154.66;;;41.96;9.19
50105;BME280;47690;39.202;-77.198;2023-05-02T00:41:47;98162.06;;;42.20;9.16
50105;BME280;47690;39.202;-77.198;2023-05-02T00:44:18;98160.47;;;42.14;9.01
50105;BME280;47690;39.202;-77.198;2023-05-02T00:46:55;98170.41;;;41.89;9.00
50105;BME280;47690;39.202;-77.198;2023-05-02T00:49:25;98184.66;;;42.00;9.37
50105;BME280;47690;39.202;-77.198;2023-05-02T00:51:57;98186.69;;;41.78;9.32
50105;BME280;47690;39.202;-77.198;2023-05-02T00:54:27;98201.31;;;41.72;9.60
50105;BME280;47690;39.202;-77.198;2023-05-02T00:56:57;98198.50;;;41.88;9.59
50105;BME280;47690;39.202;-77.198;2023-05-02T00:59:28;98197.19;;;41.80;9.59
50105;BME280;47690;39.202;-77.198;2023-05-02T01:08:25;98209.94;;;41.74;9.67
50105;BME280;47690;39.202;-77.198;2023-05-02T01:11:32;98220.19;;;41.77;9.70
50105;BME280;47690;39.202;-77.198;2023-05-02T01:14:04;98217.28;;;41.69;9.19
50105;BME280;47690;39.202;-77.198;2023-05-02T01:16:42;98231.09;;;41.57;9.77
50105;BME280;47690;39.202;-77.198;2023-05-02T01:19:30;98226.75;;;41.61;9.46
50105;BME280;47690;39.202;-77.198;2023-05-02T01:22:05;98229.56;;;41.35;9.85
50105;BME280;47690;39.202;-77.198;2023-05-02T01:28:09;98222.88;;;41.83;9.67
50105;BME280;47690;39.202;-77.198;2023-05-02T01:30:45;98235.50;;;41.32;9.83
50105;BME280;47690;39.202;-77.198;2023-05-02T01:33:17;98251.47;;;41.13;9.56
50105;BME280;47690;39.202;-77.198;2023-05-02T01:35:49;98279.63;;;40.80;10.19
50105;BME280;47690;39.202;-77.198;2023-05-02T01:38:21;98300.41;;;40.85;10.23
50105;BME280;47690;39.202;-77.198;2023-05-02T01:40:51;98301.69;;;40.56;10.41
50105;BME280;47690;39.202;-77.198;2023-05-02T01:43:25;98295.53;;;40.77;10.18
50105;BME280;47690;39.202;-77.198;2023-05-02T01:45:56;98277.44;;;41.03;10.07
50105;BME280;47690;39.202;-77.198;2023-05-02T01:48:26;98255.88;;;40.88;10.04
50105;BME280;47690;39.202;-77.198;2023-05-02T01:50:57;98248.03;;;40.76;9.85
50105;BME280;47690;39.202;-77.198;2023-05-02T01:53:28;98222.38;;;40.94;10.21
50105;BME280;47690;39.202;-77.198;2023-05-02T01:55:59;98218.34;;;40.76;10.06
50105;BME280;47690;39.202;-77.198;2023-05-02T01:58:29;98227.22;;;40.97;10.12
50105;BME280;47690;39.202;-77.198;2023-05-02T02:01:01;98231.03;;;40.75;10.15
50105;BME280;47690;39.202;-77.198;2023-05-02T02:03:33;98223.22;;;40.63;10.46
50105;BME280;47690;39.202;-77.198;2023-05-02T02:06:02;98221.31;;;40.64;10.17
50105;BME280;47690;39.202;-77.198;2023-05-02T02:08:32;98210.78;;;40.93;9.93
50105;BME280;47690;39.202;-77.198;2023-05-02T02:11:11;98213.16;;;41.16;9.98
50105;BME280;47690;39.202;-77.198;2023-05-02T02:13:48;98222.13;;;40.90;10.13
50105;BME280;47690;39.202;-77.198;2023-05-02T02:16:21;98208.91;;;40.63;10.24
50105;BME280;47690;39.202;-77.198;2023-05-02T02:18:55;98212.44;;;40.79;10.45
50105;BME280;47690;39.202;-77.198;2023-05-02T02:21:27;98217.00;;;40.63;10.06
50105;BME280;47690;39.202;-77.198;2023-05-02T02:24:01;98210.50;;;40.69;10.19
50105;BME280;47690;39.202;-77.198;2023-05-02T02:26:31;98206.50;;;40.56;10.51
50105;BME280;47690;39.202;-77.198;2023-05-02T02:29:02;98208.38;;;40.61;10.56
50105;BME280;47690;39.202;-77.198;2023-05-02T02:31:33;98208.38;;;40.29;10.27
50105;BME280;47690;39.202;-77.198;2023-05-02T02:34:03;98206.50;;;40.51;10.42
50105;BME280;47690;39.202;-77.198;2023-05-02T02:36:54;98189.47;;;40.87;10.66
50105;BME280;47690;39.202;-77.198;2023-05-02T02:42:38;98188.88;;;41.00;10.38
50105;BME280;47690;39.202;-77.198;2023-05-02T02:51:10;98182.06;;;41.18;10.48
50105;BME280;47690;39.202;-77.198;2023-05-02T02:54:01;98179.38;;;41.23;9.99
50105;BME280;47690;39.202;-77.198;2023-05-02T02:56:59;98176.91;;;41.32;10.35
50105;BME280;47690;39.202;-77.198;2023-05-02T02:59:37;98187.22;;;41.15;10.37
50105;BME280;47690;39.202;-77.198;2023-05-02T03:02:12;98194.28;;;41.05;10.20
50105;BME280;47690;39.202;-77.198;2023-05-02T03:04:44;98193.25;;;40.75;10.65
50105;BME280;47690;39.202;-77.198;2023-05-02T03:07:15;98188.41;;;40.67;10.69
50105;BME280;47690;39.202;-77.198;2023-05-02T03:09:46;98187.84;;;40.86;10.45
50105;BME280;47690;39.202;-77.198;2023-05-02T03:12:20;98192.44;;;40.69;9.99
50105;BME280;47690;39.202;-77.198;2023-05-02T03:14:50;98184.88;;;40.82;10.33
50105;BME280;47690;39.202;-77.198;2023-05-02T03:17:19;98173.81;;;40.89;9.97
50105;BME280;47690;39.202;-77.198;2023-05-02T03:19:51;98176.78;;;40.87;10.19
50105;BME280;47690;39.202;-77.198;2023-05-02T03:22:20;98182.75;;;40.84;10.13
50105;BME280;47690;39.202;-77.198;2023-05-02T03:24:50;98187.31;;;40.73;10.60
50105;BME280;47690;39.202;-77.198;2023-05-02T03:27:19;98176.25;;;40.90;9.87
50105;BME280;47690;39.202;-77.198;2023-05-02T03:29:48;98184.06;;;40.76;10.58
50105;BME280;47690;39.202;-77.198;2023-05-02T03:32:19;98174.66;;;40.63;10.32
50105;BME280;47690;39.202;-77.198;2023-05-02T03:34:49;98174.91;;;40.72;10.43
50105;BME280;47690;39.202;-77.198;2023-05-02T03:37:18;98181.66;;;40.80;9.96
50105;BME280;47690;39.202;-77.198;2023-05-02T03:39:47;98175.19;;;40.76;9.95
50105;BME280;47690;39.202;-77.198;2023-05-02T03:42:16;98182.19;;;40.66;10.35
50105;BME280;47690;39.202;-77.198;2023-05-02T03:44:45;98178.41;;;40.67;10.59
50105;BME280;47690;39.202;-77.198;2023-05-02T03:47:15;98179.78;;;40.60;10.13
50105;BME280;47690;39.202;-77.198;2023-05-02T03:49:45;98173.88;;;40.58;10.07
50105;BME280;47690;39.202;-77.198;2023-05-02T03:52:15;98174.41;;;40.39;10.63
50105;BME280;47690;39.202;-77.198;2023-05-02T03:54:47;98168.19;;;40.18;10.50
50105;BME280;47690;39.202;-77.198;2023-05-02T03:57:17;98177.38;;;40.53;10.08
50105;BME280;47690;39.202;-77.198;2023-05-02T03:59:46;98170.34;;;40.52;10.21
50105;BME280;47690;39.202;-77.198;2023-05-02T04:02:24;98177.09;;;40.28;10.64
50105;BME280;47690;39.202;-77.198;2023-05-02T04:04:54;98183.81;;;40.15;10.79
50105;BME280;47690;39.202;-77.198;2023-05-02T04:07:23;98180.06;;;40.37;10.68
50105;BME280;47690;39.202;-77.198;2023-05-02T04:09:58;98175.75;;;40.31;10.60
50105;BME280;47690;39.202;-77.198;2023-05-02T04:12:31;98170.91;;;40.43;10.09
50105;BME280;47690;39.202;-77.198;2023-05-02T04:15:00;98187.06;;;40.33;10.17
50105;BME280;47690;39.202;-77.198;2023-05-02T04:17:30;98176.31;;;40.38;10.75
50105;BME280;47690;39.202;-77.198;2023-05-02T04:20:00;98173.34;;;40.50;10.41
50105;BME280;47690;39.202;-77.198;2023-05-02T04:22:35;98170.59;;;40.55;10.10
50105;BME280;47690;39.202;-77.198;2023-05-02T04:25:08;98171.97;;;40.48;10.62
50105;BME280;47690;39.202;-77.198;2023-05-02T04:27:41;98168.72;;;40.51;10.41
50105;BME280;47690;39.202;-77.198;2023-05-02T04:30:15;98156.31;;;40.50;10.23
50105;BME280;47690;39.202;-77.198;2023-05-02T04:32:53;98153.94;;;40.43;10.25
50105;BME280;47690;39.202;-77.198;2023-05-02T04:35:23;98152.56;;;40.20;10.59
50105;BME280;47690;39.202;-77.198;2023-05-02T04:37:52;98146.09;;;40.21;10.55
50105;BME280;47690;39.202;-77.198;2023-05-02T04:40:21;98139.59;;;40.22;10.40
50105;BME280;47690;39.202;-77.198;2023-05-02T04:42:57;98137.44;;;40.29;10.41
50105;BME280;47690;39.202;-77.198;2023-05-02T04:45:35;98124.78;;;40.29;10.38
50105;BME280;47690;39.202;-77.198;2023-05-02T04:48:10;98123.44;;;40.27;10.73
50105;BME280;47690;39.202;-77.198;2023-05-02T04:50:40;98120.19;;;40.14;10.17
50105;BME280;47690;39.202;-77.198;2023-05-02T04:53:11;98115.34;;;40.01;10.46
50105;BME280;47690;39.202;-77.198;2023-05-02T04:55:42;98115.63;;;39.94;10.56
50105;BME280;47690;39.202;-77.198;2023-05-02T04:58:12;98116.97;;;39.92;10.58
50105;BME280;47690;39.202;-77.198;2023-05-02T05:00:43;98115.59;;;39.73;10.70
50105;BME280;47690;39.202;-77.198;2023-05-02T05:03:13;98112.63;;;39.59;10.53
50105;BME280;47690;39.202;-77.198;2023-05-02T05:05:45;98100.47;;;39.52;10.98
50105;BME280;47690;39.202;-77.198;2023-05-02T05:08:17;98097.25;;;39.60;10.85
50105;BME280;47690;39.202;-77.198;2023-05-02T05:10:47;98111.81;;;39.69;10.73
50105;BME280;47690;39.202;-77.198;2023-05-02T05:13:17;98100.78;;;39.76;10.38
50105;BME280;47690;39.202;-77.198;2023-05-02T05:15:48;98098.63;;;39.88;10.42
50105;BME280;47690;39.202;-77.198;2023-05-02T05:18:17;98097.00;;;39.77;10.84
50105;BME280;47690;39.202;-77.198;2023-05-02T05:20:47;98096.75;;;40.05;10.38
50105;BME280;47690;39.202;-77.198;2023-05-02T05:23:16;98087.84;;;40.20;10.22
50105;BME280;47690;39.202;-77.198;2023-05-02T05:25:45;98087.34;;;40.02;10.63
50105;BME280;47690;39.202;-77.198;2023-05-02T05:28:17;98081.41;;;39.95;10.68
50105;BME280;47690;39.202;-77.198;2023-05-02T05:30:46;98089.19;;;40.17;10.29
50105;BME280;47690;39.202;-77.198;2023-05-02T05:33:19;98080.31;;;40.01;10.51
50105;BME280;47690;39.202;-77.198;2023-05-02T05:35:49;98063.63;;;40.04;10.53
50105;BME280;47690;39.202;-77.198;2023-05-02T05:38:18;98053.91;;;39.77;11.00
50105;BME280;47690;39.202;-77.198;2023-05-02T05:40:51;98053.91;;;39.82;10.77
50105;BME280;47690;39.202;-77.198;2023-05-02T05:43:21;98049.84;;;39.80;10.65
50105;BME280;47690;39.202;-77.198;2023-05-02T05:45:51;98039.63;;;39.77;10.85
50105;BME280;47690;39.202;-77.198;2023-05-02T05:48:22;98045.28;;;39.80;10.96
50105;BME280;47690;39.202;-77.198;2023-05-02T05:50:51;98048.53;;;39.72;10.48
50105;BME280;47690;39.202;-77.198;2023-05-02T05:53:21;98045.81;;;39.56;10.93
50105;BME280;47690;39.202;-77.198;2023-05-02T05:55:51;98055.25;;;39.54;10.86
50105;BME280;47690;39.202;-77.198;2023-05-02T05:58:21;98059.00;;;39.53;10.80
50105;BME280;47690;39.202;-77.198;2023-05-02T06:00:53;98052.28;;;39.55;10.81
50105;BME280;47690;39.202;-77.198;2023-05-02T06:03:23;98052.28;;;39.55;10.98
50105;BME280;47690;39.202;-77.198;2023-05-02T06:05:51;98057.13;;;39.53;10.79
50105;BME280;47690;39.202;-77.198;2023-05-02T06:08:19;98061.13;;;39.45;10.80
50105;BME280;47690;39.202;-77.198;2023-05-02T06:10:49;98055.19;;;39.43;10.81
50105;BME280;47690;39.202;-77.198;2023-05-02T06:13:18;98050.06;;;39.42;10.93
50105;BME280;47690;39.202;-77.198;2023-05-02T06:15:47;98055.19;;;39.33;10.85
50105;BME280;47690;39.202;-77.198;2023-05-02T06:18:15;98048.44;;;39.30;10.85
50105;BME280;47690;39.202;-77.198;2023-05-02T06:20:45;98047.13;;;39.33;10.98
50105;BME280;47690;39.202;-77.198;2023-05-02T06:23:14;98040.91;;;39.22;10.83
50105;BME280;47690;39.202;-77.198;2023-05-02T06:25:45;98039.00;;;39.23;10.92
50105;BME280;47690;39.202;-77.198;2023-05-02T06:28:15;98035.22;;;39.24;10.72
50105;BME280;47690;39.202;-77.198;2023-05-02T06:30:45;98035.53;;;39.32;10.90
50105;BME280;47690;39.202;-77.198;2023-05-02T06:33:13;98030.19;;;39.53;10.69
50105;BME280;47690;39.202;-77.198;2023-05-02T06:35:50;98028.56;;;39.52;10.60
50105;BME280;47690;39.202;-77.198;2023-05-02T06:38:20;98025.88;;;39.52;10.44
50105;BME280;47690;39.202;-77.198;2023-05-02T06:40:50;98028.31;;;39.48;10.87
50105;BME280;47690;39.202;-77.198;2023-05-02T06:43:19;98030.41;;;39.31;11.00
50105;BME280;47690;39.202;-77.198;2023-05-02T06:45:52;98026.34;;;39.13;11.08
50105;BME280;47690;39.202;-77.198;2023-05-02T06:48:22;98023.66;;;39.23;10.86
50105;BME280;47690;39.202;-77.198;2023-05-02T06:50:51;98032.53;;;39.13;10.90
50105;BME280;47690;39.202;-77.198;2023-05-02T06:53:21;98032.28;;;39.15;11.08
50105;BME280;47690;39.202;-77.198;2023-05-02T06:55:50;98019.63;;;39.10;10.69
50105;BME280;47690;39.202;-77.198;2023-05-02T06:58:19;98020.41;;;39.00;10.95
50105;BME280;47690;39.202;-77.198;2023-05-02T07:00:51;98024.66;;;38.96;10.89
50105;BME280;47690;39.202;-77.198;2023-05-02T07:03:19;98020.41;;;39.00;10.78
50105;BME280;47690;39.202;-77.198;2023-05-02T07:05:48;98013.97;;;39.06;10.88
50105;BME280;47690;39.202;-77.198;2023-05-02T07:08:17;98015.28;;;39.04;10.76
50105;BME280;47690;39.202;-77.198;2023-05-02T07:10:49;98018.19;;;38.92;10.84
50105;BME280;47690;39.202;-77.198;2023-05-02T07:13:17;98018.16;;;38.87;10.91
50105;BME280;47690;39.202;-77.198;2023-05-02T07:15:46;98017.91;;;38.88;10.92
50105;BME280;47690;39.202;-77.198;2023-05-02T07:18:17;98016.84;;;38.89;10.77
50105;BME280;47690;39.202;-77.198;2023-05-02T07:20:46;98019.28;;;38.91;10.69
50105;BME280;47690;39.202;-77.198;2023-05-02T07:23:16;98013.97;;;39.22;10.85
50105;BME280;47690;39.202;-77.198;2023-05-02T07:25:46;98018.00;;;39.19;10.65
50105;BME280;47690;39.202;-77.198;2023-05-02T07:28:17;98018.84;;;39.20;10.46
50105;BME280;47690;39.202;-77.198;2023-05-02T07:30:46;98028.75;;;39.04;10.55
50105;BME280;47690;39.202;-77.198;2023-05-02T07:33:16;98029.56;;;39.10;10.71
50105;BME280;47690;39.202;-77.198;2023-05-02T07:35:45;98030.53;;;38.83;10.89
50105;BME280;47690;39.202;-77.198;2023-05-02T07:38:16;98034.78;;;38.73;10.73
50105;BME280;47690;39.202;-77.198;2023-05-02T07:40:45;98038.53;;;38.67;10.84
50105;BME280;47690;39.202;-77.198;2023-05-02T07:43:15;98037.16;;;38.59;10.84
50105;BME280;47690;39.202;-77.198;2023-05-02T07:45:44;98035.84;;;38.62;10.87
50105;BME280;47690;39.202;-77.198;2023-05-02T07:48:14;98040.69;;;38.65;10.73
50105;BME280;47690;39.202;-77.198;2023-05-02T07:50:45;98043.69;;;38.74;10.97
50105;BME280;47690;39.202;-77.198;2023-05-02T07:53:15;98043.28;;;39.13;10.60
50105;BME280;47690;39.202;-77.198;2023-05-02T07:55:44;98056.13;;;38.90;10.83
50105;BME280;47690;39.202;-77.198;2023-05-02T07:58:13;98053.97;;;38.87;10.61
50105;BME280;47690;39.202;-77.198;2023-05-02T08:00:45;98051.53;;;38.86;10.62
50105;BME280;47690;39.202;-77.198;2023-05-02T08:03:15;98054.22;;;38.86;10.44
50105;BME280;47690;39.202;-77.198;2023-05-02T08:05:45;98052.56;;;38.79;10.43
50105;BME280;47690;39.202;-77.198;2023-05-02T08:08:15;98044.63;;;39.05;10.54
50105;BME280;47690;39.202;-77.198;2023-05-02T08:10:45;98041.28;;;38.83;10.74
50105;BME280;47690;39.202;-77.198;2023-05-02T08:13:14;98032.66;;;38.70;10.66
50105;BME280;47690;39.202;-77.198;2023-05-02T08:15:43;98044.97;;;38.56;10.65
50105;BME280;47690;39.202;-77.198;2023-05-02T08:18:13;98040.38;;;38.56;10.72
50105;BME280;47690;39.202;-77.198;2023-05-02T08:20:49;98054.16;;;38.75;10.60
50105;BME280;47690;39.202;-77.198;2023-05-02T08:23:18;98063.19;;;39.02;10.18
50105;BME280;47690;39.202;-77.198;2023-05-02T08:25:48;98069.22;;;38.71;10.38
50105;BME280;47690;39.202;-77.198;2023-05-02T08:28:17;98066.00;;;38.69;10.61
50105;BME280;47690;39.202;-77.198;2023-05-02T08:30:47;98064.94;;;38.70;10.26
50105;BME280;47690;39.202;-77.198;2023-05-02T08:33:17;98075.09;;;38.63;10.62
50105;BME280;47690;39.202;-77.198;2023-05-02T08:35:47;98079.16;;;38.65;10.51
50105;BME280;47690;39.202;-77.198;2023-05-02T08:38:16;98082.91;;;38.64;10.40
50105;BME280;47690;39.202;-77.198;2023-05-02T08:40:45;98091.50;;;38.61;10.67
50105;BME280;47690;39.202;-77.198;2023-05-02T08:43:15;98091.00;;;38.70;10.64
50105;BME280;47690;39.202;-77.198;2023-05-02T08:45:45;98093.44;;;38.71;10.45
50105;BME280;47690;39.202;-77.198;2023-05-02T08:48:15;98103.44;;;38.81;10.32
50105;BME280;47690;39.202;-77.198;2023-05-02T08:50:46;98104.81;;;38.84;10.15
50105;BME280;47690;39.202;-77.198;2023-05-02T08:53:17;98103.72;;;38.85;10.58
50105;BME280;47690;39.202;-77.198;2023-05-02T08:55:47;98109.44;;;38.99;10.39
50105;BME280;47690;39.202;-77.198;2023-05-02T08:58:16;98110.72;;;38.86;10.61
50105;BME280;47690;39.202;-77.198;2023-05-02T09:00:47;98102.66;;;38.86;10.83
50105;BME280;47690;39.202;-77.198;2023-05-02T09:03:32;98110.00;;;39.01;10.43
50105;BME280;47690;39.202;-77.198;2023-05-02T09:06:11;98106.66;;;38.83;10.43
50105;BME280;47690;39.202;-77.198;2023-05-02T09:08:41;98108.56;;;38.88;10.58
50105;BME280;47690;39.202;-77.198;2023-05-02T09:11:12;98118.44;;;38.66;10.57
50105;BME280;47690;39.202;-77.198;2023-05-02T09:13:49;98113.06;;;38.72;10.45
50105;BME280;47690;39.202;-77.198;2023-05-02T09:16:22;98110.06;;;38.68;10.34
50105;BME280;47690;39.202;-77.198;2023-05-02T09:21:26;98119.22;;;38.62;10.62
50105;BME280;47690;39.202;-77.198;2023-05-02T09:24:16;98128.16;;;38.73;10.45
50105;BME280;47690;39.202;-77.198;2023-05-02T09:27:02;98122.19;;;38.71;10.47
50105;BME280;47690;39.202;-77.198;2023-05-02T09:29:33;98125.91;;;38.59;10.33
50105;BME280;47690;39.202;-77.198;2023-05-02T09:32:05;98119.63;;;38.48;10.34
50105;BME280;47690;39.202;-77.198;2023-05-02T09:34:35;98127.31;;;38.29;10.58
50105;BME280;47690;39.202;-77.198;2023-05-02T09:37:07;98136.91;;;38.20;10.38
50105;BME280;47690;39.202;-77.198;2023-05-02T09:39:37;98141.19;;;38.16;10.53
50105;BME280;47690;39.202;-77.198;2023-05-02T09:42:06;98142.72;;;38.06;10.69
50105;BME280;47690;39.202;-77.198;2023-05-02T09:44:37;98138.44;;;38.10;10.47
50105;BME280;47690;39.202;-77.198;2023-05-02T09:47:07;98147.63;;;38.15;10.45
50105;BME280;47690;39.202;-77.198;2023-05-02T09:49:44;98151.22;;;38.31;10.53
50105;BME280;47690;39.202;-77.198;2023-05-02T09:52:15;98156.31;;;38.27;10.34
50105;BME280;47690;39.202;-77.198;2023-05-02T09:54:45;98161.38;;;38.23;10.47
50105;BME280;47690;39.202;-77.198;2023-05-02T09:57:15;98155.41;;;38.16;10.35
50105;BME280;47690;39.202;-77.198;2023-05-02T09:59:55;98157.66;;;38.30;10.34
50105;BME280;47690;39.202;-77.198;2023-05-02T10:02:25;98157.38;;;38.26;10.52
50105;BME280;47690;39.202;-77.198;2023-05-02T10:04:55;98163.56;;;38.26;10.56
50105;BME280;47690;39.202;-77.198;2023-05-02T10:07:27;98162.56;;;38.33;10.30
50105;BME280;47690;39.202;-77.198;2023-05-02T10:09:57;98164.66;;;38.31;10.18
50105;BME280;47690;39.202;-77.198;2023-05-02T10:12:28;98169.44;;;38.51;10.12
50105;BME280;47690;39.202;-77.198;2023-05-02T10:15:03;98166.25;;;38.59;10.04
50105;BME280;47690;39.202;-77.198;2023-05-02T10:17:47;98171.34;;;38.99;9.87
50105;BME280;47690;39.202;-77.198;2023-05-02T10:20:22;98175.22;;;38.75;10.10
50105;BME280;47690;39.202;-77.198;2023-05-02T10:22:58;98180.31;;;38.72;9.87
50105;BME280;47690;39.202;-77.198;2023-05-02T10:25:32;98183.00;;;38.72;10.15
50105;BME280;47690;39.202;-77.198;2023-05-02T10:28:02;98199.59;;;38.58;10.07
50105;BME280;47690;39.202;-77.198;2023-05-02T10:30:32;98195.84;;;38.59;10.04
50105;BME280;47690;39.202;-77.198;2023-05-02T10:33:02;98192.41;;;39.12;10.03
50105;BME280;47690;39.202;-77.198;2023-05-02T10:35:32;98188.13;;;39.21;9.82
50105;BME280;47690;39.202;-77.198;2023-05-02T10:38:05;98195.97;;;38.80;10.08
50105;BME280;47690;39.202;-77.198;2023-05-02T10:40:34;98197.16;;;38.57;10.20
50105;BME280;47690;39.202;-77.198;2023-05-02T10:43:04;98201.47;;;38.58;10.14
50105;BME280;47690;39.202;-77.198;2023-05-02T10:45:34;98201.84;;;39.15;10.02
50105;BME280;47690;39.202;-77.198;2023-05-02T10:50:58;98202.28;;;39.50;9.46
50105;BME280;47690;39.202;-77.198;2023-05-02T10:53:35;98202.59;;;39.58;9.71
50105;BME280;47690;39.202;-77.198;2023-05-02T10:58:42;98201.75;;;39.58;10.02
50105;BME280;47690;39.202;-77.198;2023-05-02T11:04:04;98199.63;;;39.65;9.79
50105;BME280;47690;39.202;-77.198;2023-05-02T11:06:36;98203.09;;;39.50;9.99
50105;BME280;47690;39.202;-77.198;2023-05-02T11:11:45;98200.16;;;38.98;10.10
50105;BME280;47690;39.202;-77.198;2023-05-02T11:24:49;98191.16;;;38.82;10.14
50105;BME280;47690;39.202;-77.198;2023-05-02T11:30:06;98203.69;;;39.04;10.03
50105;BME280;47690;39.202;-77.198;2023-05-02T11:37:53;98209.22;;;38.92;9.97
50105;BME280;47690;39.202;-77.198;2023-05-02T11:40:24;98212.41;;;38.84;10.11
50105;BME280;47690;39.202;-77.198;2023-05-02T11:42:54;98212.13;;;38.80;9.97
50105;BME280;47690;39.202;-77.198;2023-05-02T11:45:34;98217.56;;;38.90;9.89
50105;BME280;47690;39.202;-77.198;2023-05-02T11:48:14;98217.75;;;38.78;9.97
50105;BME280;47690;39.202;-77.198;2023-05-02T11:50:46;98218.00;;;38.77;9.97
50105;BME280;47690;39.202;-77.198;2023-05-02T11:53:19;98226.94;;;38.88;10.04
50105;BME280;47690;39.202;-77.198;2023-05-02T11:55:52;98234.84;;;39.48;9.57
50105;BME280;47690;39.202;-77.198;2023-05-02T11:58:29;98234.13;;;39.73;9.51
50105;BME280;47690;39.202;-77.198;2023-05-02T12:01:14;98238.78;;;39.99;9.21
50105;BME280;47690;39.202;-77.198;2023-05-02T12:03:44;98233.91;;;39.80;9.62
50105;BME280;47690;39.202;-77.198;2023-05-02T12:06:16;98231.97;;;39.70;9.25
50105;BME280;47690;39.202;-77.198;2023-05-02T12:08:49;98234.69;;;39.81;9.25
50105;BME280;47690;39.202;-77.198;2023-05-02T12:11:22;98234.41;;;39.77;9.31
50105;BME280;47690;39.202;-77.198;2023-05-02T12:13:51;98236.53;;;39.70;9.67
50105;BME280;47690;39.202;-77.198;2023-05-02T12:16:20;98227.38;;;39.66;9.52
50105;BME280;47690;39.202;-77.198;2023-05-02T12:18:49;98224.97;;;39.69;9.46
50105;BME280;47690;39.202;-77.198;2023-05-02T12:21:18;98222.06;;;39.86;9.64
50105;BME280;47690;39.202;-77.198;2023-05-02T12:23:47;98227.16;;;39.88;9.56
50105;BME280;47690;39.202;-77.198;2023-05-02T12:26:25;98219.63;;;39.90;9.57
50105;BME280;47690;39.202;-77.198;2023-05-02T12:28:59;98227.16;;;39.88;9.65
50105;BME280;47690;39.202;-77.198;2023-05-02T12:31:29;98220.47;;;39.91;9.13
50105;BME280;47690;39.202;-77.198;2023-05-02T12:33:59;98221.00;;;39.98;9.29
50105;BME280;47690;39.202;-77.198;2023-05-02T12:36:28;98228.84;;;39.99;9.20
50105;BME280;47690;39.202;-77.198;2023-05-02T12:38:58;98228.56;;;40.06;9.29
50105;BME280;47690;39.202;-77.198;2023-05-02T12:41:33;98221.56;;;40.10;9.66
50105;BME280;47690;39.202;-77.198;2023-05-02T12:44:03;98233.72;;;40.23;9.61
50105;BME280;47690;39.202;-77.198;2023-05-02T12:46:32;98224.28;;;40.21;9.45
50105;BME280;47690;39.202;-77.198;2023-05-02T12:49:06;98234.78;;;40.17;9.15
50105;BME280;47690;39.202;-77.198;2023-05-02T12:51:53;98225.41;;;40.46;9.13
50105;BME280;47690;39.202;-77.198;2023-05-02T12:54:24;98225.88;;;40.22;9.45
50105;BME280;47690;39.202;-77.198;2023-05-02T12:56:54;98223.69;;;39.98;9.39
50105;BME280;47690;39.202;-77.198;2023-05-02T13:01:56;98217.75;;;39.91;9.61
50105;BME280;47690;39.202;-77.198;2023-05-02T13:04:37;98224.81;;;40.23;9.49
50105;BME280;47690;39.202;-77.198;2023-05-02T13:07:07;98207.53;;;40.08;9.19
50105;BME280;47690;39.202;-77.198;2023-05-02T13:09:37;98210.53;;;40.07;9.56
50105;BME280;47690;39.202;-77.198;2023-05-02T13:12:07;98213.50;;;40.10;9.41
50105;BME280;47690;39.202;-77.198;2023-05-02T13:14:36;98208.63;;;40.07;9.87
50105;BME280;47690;39.202;-77.198;2023-05-02T13:17:05;98201.63;;;40.17;9.47
50105;BME280;47690;39.202;-77.198;2023-05-02T13:19:36;98195.69;;;40.09;9.55
50105;BME280;47690;39.202;-77.198;2023-05-02T13:22:11;98184.91;;;40.09;9.79
50105;BME280;47690;39.202;-77.198;2023-05-02T13:24:40;98178.19;;;40.07;9.67
50105;BME280;47690;39.202;-77.198;2023-05-02T13:27:12;98179.53;;;40.09;9.56
50105;BME280;47690;39.202;-77.198;2023-05-02T13:29:41;98176.56;;;40.06;9.48
50105;BME280;47690;39.202;-77.198;2023-05-02T13:32:12;98178.16;;;40.12;9.56
50105;BME280;47690;39.202;-77.198;2023-05-02T13:34:42;98183.81;;;40.21;9.61
50105;BME280;47690;39.202;-77.198;2023-05-02T13:37:12;98175.19;;;40.13;9.55
50105;BME280;47690;39.202;-77.198;2023-05-02T13:39:42;98180.06;;;40.11;9.38
50105;BME280;47690;39.202;-77.198;2023-05-02T13:42:13;98175.75;;;40.05;9.67
50105;BME280;47690;39.202;-77.198;2023-05-02T13:44:44;98172.22;;;40.05;9.45
50105;BME280;47690;39.202;-77.198;2023-05-02T13:47:14;98180.34;;;40.20;9.36
50105;BME280;47690;39.202;-77.198;2023-05-02T13:49:45;98179.25;;;40.21;9.54
50105;BME280;47690;39.202;-77.198;2023-05-02T13:52:15;98174.13;;;40.20;9.71
50105;BME280;47690;39.202;-77.198;2023-05-02T13:54:45;98176.81;;;40.25;9.42
50105;BME280;47690;39.202;-77.198;2023-05-02T13:57:14;98181.13;;;40.26;9.17
50105;BME280;47690;39.202;-77.198;2023-05-02T13:59:44;98175.22;;;40.24;9.58
50105;BME280;47690;39.202;-77.198;2023-05-02T14:02:13;98182.50;;;40.28;9.76